Time;durP1;ratioP1;P1;durP2;ratioP2;P2;SDS_P1;SDS_P2;PMS_P1;PMS_P2;Temp;Humidity;BMP_temperature;BMP_pressure;BME280_temperature;BME280_humidity;BME280_pressure;Samples;Min_cycle;Max_cycle;Signal;HPM_P1;HPM_P2
2023/04/04 00:03:50;;;;;;;4.38;2.35;;;;;;;-0.49;52.98;101284.69;30743876;28;112025;-68
2023/04/04 00:18:50;;;;;;;6.88;2.75;;;;;;;-0.19;52.41;101282.41;30742292;28;96745;-67
2023/04/04 00:33:51;;;;;;;8.77;2.85;;;;;;;-0.05;52.48;101259.00;30740883;28;107273;-66
2023/04/04 00:48:53;;;;;;;8.35;3.05;;;;;;;0.03;52.58;101255.16;30738595;28;114103;-68
2023/04/04 01:03:53;;;;;;;6.47;2.97;;;;;;;0.05;52.59;101248.06;30737383;28;96727;-68
2023/04/04 01:18:55;;;;;;;5.70;3.25;;;;;;;0.12;52.71;101238.97;30736663;28;96648;-67
2023/04/04 01:34:18;;;;;;;4.80;2.63;;;;;;;0.07;52.41;101223.50;30805319;28;96863;-67
2023/04/04 01:49:19;;;;;;;4.32;2.53;;;;;;;-0.07;52.42;101215.47;30856179;28;96701;-68
2023/04/04 02:04:20;;;;;;;4.22;2.45;;;;;;;-0.44;52.93;101198.94;30859275;28;97426;-66
2023/04/04 02:19:20;;;;;;;7.32;3.08;;;;;;;-0.37;53.00;101195.97;30874816;28;96713;-66
2023/04/04 02:34:20;;;;;;;12.77;3.33;;;;;;;-0.22;52.87;101201.34;30874198;28;97069;-67
2023/04/04 02:49:21;;;;;;;9.77;3.15;;;;;;;-0.09;53.15;101210.31;30872209;28;96591;-67
2023/04/04 03:04:21;;;;;;;6.60;2.88;;;;;;;-0.04;52.96;101208.31;30871261;28;97120;-69
2023/04/04 03:19:23;;;;;;;8.48;3.50;;;;;;;-0.06;53.04;101207.53;30867406;28;97378;-67
2023/04/04 03:34:23;;;;;;;8.27;3.72;;;;;;;-0.41;53.73;101206.63;30865268;28;96741;-68
2023/04/04 03:49:24;;;;;;;13.80;4.80;;;;;;;-0.31;53.93;101209.69;30863751;28;97420;-66
2023/04/04 04:04:24;;;;;;;9.27;4.40;;;;;;;-0.41;54.54;101214.50;30862450;28;96687;-67
2023/04/04 04:19:25;;;;;;;7.72;3.75;;;;;;;-0.29;55.17;101205.22;30861052;28;109392;-67
2023/04/04 04:34:26;;;;;;;9.80;4.47;;;;;;;-0.20;55.65;101204.75;30859093;28;96684;-68
2023/04/04 04:49:26;;;;;;;8.73;4.15;;;;;;;-0.18;55.49;101205.50;30857592;28;97019;-66
2023/04/04 05:04:26;;;;;;;11.55;4.10;;;;;;;-0.17;55.67;101202.81;30787773;28;112597;-67
2023/04/04 05:19:27;;;;;;;6.40;2.72;;;;;;;-0.04;55.32;101218.78;30731723;28;96882;-68
2023/04/04 05:34:27;;;;;;;9.25;3.78;;;;;;;-0.03;55.16;101228.34;30718851;28;97113;-69
2023/04/04 05:49:27;;;;;;;12.48;3.17;;;;;;;0.28;54.55;101218.94;30729172;28;104993;-65
2023/04/04 06:04:29;;;;;;;8.13;4.00;;;;;;;0.70;53.79;101216.78;30711231;28;97409;-66
2023/04/04 06:19:29;;;;;;;18.42;3.67;;;;;;;1.18;52.49;101214.22;30707827;28;115806;-66
2023/04/04 06:34:30;;;;;;;6.55;3.17;;;;;;;1.58;51.71;101211.97;30689021;28;96742;-68
2023/04/04 06:49:32;;;;;;;13.13;4.18;;;;;;;2.00;50.65;101201.72;30632922;28;96866;-67
2023/04/04 07:04:33;;;;;;;8.15;2.92;;;;;;;2.76;49.13;101195.44;30653104;28;96762;-67
2023/04/04 07:19:34;;;;;;;14.27;3.53;;;;;;;3.11;47.88;101196.78;30662741;28;96775;-65
2023/04/04 07:34:34;;;;;;;8.85;2.22;;;;;;;3.57;46.35;101204.38;30638364;28;98571;-65
2023/04/04 07:49:34;;;;;;;5.50;2.10;;;;;;;3.93;43.95;101202.88;30692040;28;114280;-67
2023/04/04 08:04:35;;;;;;;11.65;2.60;;;;;;;3.71;42.59;101221.91;30709395;28;108667;-65
2023/04/04 08:19:35;;;;;;;7.95;1.90;;;;;;;3.77;42.14;101202.22;30706410;28;97492;-65
2023/04/04 08:34:36;;;;;;;7.38;1.70;;;;;;;3.97;40.48;101201.72;30709685;28;106908;-66
2023/04/04 08:49:39;;;;;;;3.47;2.03;;;;;;;4.56;39.85;101190.69;30709205;28;97199;-66
2023/04/04 09:04:41;;;;;;;4.77;2.37;;;;;;;4.82;39.49;101176.63;30702877;28;96823;-67
2023/04/04 09:19:42;;;;;;;5.95;2.00;;;;;;;5.88;38.70;101160.94;30719694;28;96698;-67
2023/04/04 09:34:44;;;;;;;5.47;2.00;;;;;;;8.02;34.81;101162.59;30706233;28;98511;-67
2023/04/04 09:49:44;;;;;;;5.03;2.40;;;;;;;7.57;34.12;101176.91;30692663;28;98164;-64
2023/04/04 10:04:45;;;;;;;9.27;2.80;;;;;;;7.52;34.38;101171.13;30722336;28;96726;-65
2023/04/04 10:19:45;;;;;;;2.90;1.98;;;;;;;7.59;33.38;101167.03;30708129;28;97779;-65
2023/04/04 10:35:10;;;;;;;8.18;2.22;;;;;;;9.11;32.17;101145.19;30741663;28;97392;-67
2023/04/04 10:50:11;;;;;;;6.03;2.57;;;;;;;9.36;31.33;101145.63;30707830;28;97108;-66
2023/04/04 11:05:11;;;;;;;4.43;2.20;;;;;;;8.74;31.38;101121.88;30739096;28;96621;-65
2023/04/04 11:20:21;;;;;;;5.75;1.88;;;;;;;8.10;31.80;101130.94;30741886;28;96941;-68
2023/04/04 11:35:21;;;;;;;5.57;2.17;;;;;;;7.78;31.51;101108.81;30720992;28;97837;-68
2023/04/04 11:50:22;;;;;;;5.88;2.20;;;;;;;6.47;33.41;101113.31;30728746;28;97101;-67
2023/04/04 12:05:22;;;;;;;5.57;2.63;;;;;;;5.99;34.71;101109.91;30738731;28;97206;-69
2023/04/04 12:20:23;;;;;;;5.15;1.98;;;;;;;6.52;34.69;101103.19;30729884;28;97435;-66
2023/04/04 12:35:23;;;;;;;6.85;2.20;;;;;;;6.09;35.16;101087.06;30734330;28;97327;-66
2023/04/04 12:50:27;;;;;;;7.65;2.25;;;;;;;6.10;35.35;101085.28;30723159;28;97278;-67
2023/04/04 13:05:27;;;;;;;3.88;1.90;;;;;;;5.07;36.91;101089.41;30628440;28;97180;-67
2023/04/04 13:20:27;;;;;;;4.45;1.83;;;;;;;7.02;35.71;101068.31;30600012;28;97068;-67
2023/04/04 13:35:28;;;;;;;5.40;1.80;;;;;;;6.16;34.87;101066.28;30603260;28;97358;-67
2023/04/04 13:50:31;;;;;;;2.55;1.50;;;;;;;5.86;35.68;101069.47;30610704;28;96724;-67
2023/04/04 14:05:31;;;;;;;5.47;2.50;;;;;;;5.42;36.09;101062.16;30652068;28;97847;-67
2023/04/04 14:20:32;;;;;;;3.95;1.70;;;;;;;5.01;36.42;101065.25;30637449;28;118007;-67
2023/04/04 14:35:32;;;;;;;6.50;2.20;;;;;;;5.69;35.36;101055.75;30640068;28;97547;-68
2023/04/04 14:50:32;;;;;;;4.03;2.05;;;;;;;5.23;36.05;101052.09;30665893;28;98095;-67
2023/04/04 15:05:33;;;;;;;7.65;2.30;;;;;;;5.27;36.35;101060.66;30716807;28;98380;-67
2023/04/04 15:20:37;;;;;;;5.30;2.88;;;;;;;4.82;37.16;101045.44;30687565;28;98249;-66
2023/04/04 15:35:37;;;;;;;7.30;2.50;;;;;;;5.22;37.13;101029.31;30677826;28;98428;-67
2023/04/04 15:50:38;;;;;;;3.95;1.90;;;;;;;5.76;36.45;101012.00;30665656;28;97475;-69
2023/04/04 16:05:38;;;;;;;7.22;2.13;;;;;;;5.65;35.98;101019.09;30649573;28;116771;-70
2023/04/04 16:20:38;;;;;;;5.82;1.80;;;;;;;5.43;35.94;101013.63;30652055;28;108137;-66
2023/04/04 16:35:39;;;;;;;6.00;2.28;;;;;;;4.90;36.54;101006.13;30706697;28;107345;-71
2023/04/04 16:50:39;;;;;;;9.20;3.65;;;;;;;4.29;37.53;100994.75;30644157;28;97056;-71
2023/04/04 17:05:40;;;;;;;6.65;2.15;;;;;;;3.35;38.79;100987.13;30663589;28;97956;-73
2023/04/04 17:20:42;;;;;;;6.85;2.95;;;;;;;2.56;40.45;100991.47;30648128;28;102482;-67
2023/04/04 17:35:46;;;;;;;7.57;2.35;;;;;;;1.91;41.42;100979.72;30667659;28;98218;-67
2023/04/04 17:50:48;;;;;;;;;;;;;;;1.30;42.18;100981.66;30671251;28;98202;-67
2023/04/04 18:05:48;;;;;;;4.60;2.70;;;;;;;0.85;43.17;100981.66;30646148;28;97484;-69
2023/04/04 18:20:49;;;;;;;10.15;3.88;;;;;;;0.54;44.30;100988.63;30668095;28;97021;-66
2023/04/04 18:35:50;;;;;;;8.48;3.25;;;;;;;0.39;45.12;100984.25;30632678;28;97227;-68
2023/04/04 18:50:50;;;;;;;13.77;5.07;;;;;;;0.10;46.03;100989.31;30675181;28;97462;-66
2023/04/04 19:05:52;;;;;;;21.00;9.43;;;;;;;-0.15;46.59;100984.50;30691852;28;97604;-66
2023/04/04 19:20:53;;;;;;;73.20;24.23;;;;;;;-0.42;47.51;100979.81;30668388;28;97948;-66
2023/04/04 19:36:19;;;;;;;35.90;14.75;;;;;;;-0.52;48.20;100982.91;30678338;28;97411;-65
2023/04/04 19:51:19;;;;;;;36.70;17.92;;;;;;;-0.79;48.97;100985.16;30679370;28;98285;-66
2023/04/04 20:06:27;;;;;;;38.40;13.23;;;;;;;-0.74;50.12;100970.09;30655840;28;97955;-66
2023/04/04 20:21:30;;;;;;;25.17;10.70;;;;;;;-0.69;50.28;100956.75;30642753;28;97678;-65
2023/04/04 20:36:34;;;;;;;23.10;10.80;;;;;;;-0.90;50.70;100956.94;30688181;28;97332;-66
2023/04/04 20:51:35;;;;;;;18.60;8.60;;;;;;;-0.84;51.50;100950.53;30665365;28;97957;-65
2023/04/04 21:06:37;;;;;;;20.45;7.10;;;;;;;-0.63;51.80;100932.91;30669930;28;97134;-66
2023/04/04 21:21:38;;;;;;;15.45;7.68;;;;;;;-0.65;51.51;100918.22;30670188;28;98012;-66
2023/04/04 21:36:39;;;;;;;16.35;7.65;;;;;;;-0.86;52.28;100916.59;30690235;28;97017;-65
2023/04/04 21:51:40;;;;;;;13.57;6.50;;;;;;;-0.99;52.92;100907.69;30732734;28;97493;-66
2023/04/04 22:06:41;;;;;;;16.20;7.05;;;;;;;-1.06;52.68;100896.69;30665186;28;96757;-65
2023/04/04 22:21:46;;;;;;;11.52;5.95;;;;;;;-1.03;53.20;100878.22;30736626;28;96766;-66
2023/04/04 22:36:46;;;;;;;10.55;6.78;;;;;;;-0.94;53.69;100895.22;30752677;28;96976;-65
2023/04/04 22:51:47;;;;;;;13.20;7.07;;;;;;;-1.07;53.60;100887.16;30750902;28;104035;-66
2023/04/04 23:06:48;;;;;;;19.13;7.78;;;;;;;-1.27;54.08;100880.34;30750222;28;96801;-65
2023/04/04 23:21:48;;;;;;;18.42;8.90;;;;;;;-1.46;54.63;100864.72;30748347;28;97455;-66
2023/04/04 23:36:49;;;;;;;16.35;7.75;;;;;;;-1.46;56.24;100854.28;30746278;28;109672;-65
2023/04/04 23:51:50;;;;;;;19.38;8.52;;;;;;;-1.32;56.52;100850.97;30745639;28;96852;-66
